createdAt,value
2018-08-28T00:01:55.963Z,10.77
2018-08-28T00:04:25.607Z,7.27
2018-08-28T00:06:54.760Z,6.30
2018-08-28T00:09:23.903Z,7.60
2018-08-28T00:11:53.068Z,6.20
2018-08-28T00:14:23.075Z,8.77
2018-08-28T00:16:52.296Z,6.07
2018-08-28T00:19:21.381Z,6.80
2018-08-28T00:21:50.592Z,6.80
2018-08-28T00:24:19.760Z,7.07
2018-08-28T00:26:48.902Z,9.40
2018-08-28T00:29:18.105Z,4.73
2018-08-28T00:31:47.260Z,6.17
2018-08-28T00:34:16.444Z,7.73
2018-08-28T00:36:45.590Z,4.37
2018-08-28T00:39:14.641Z,9.93
2018-08-28T00:41:43.720Z,6.00
2018-08-28T00:44:12.809Z,5.60
2018-08-28T00:46:41.940Z,4.37
2018-08-28T00:49:11.206Z,5.77
2018-08-28T00:51:40.337Z,7.17
2018-08-28T00:54:09.534Z,5.80
2018-08-28T00:56:38.696Z,6.27
2018-08-28T00:59:07.943Z,8.07
2018-08-28T01:01:37.170Z,7.87
2018-08-28T01:04:06.354Z,4.80
2018-08-28T01:06:35.431Z,5.27
2018-08-28T01:09:05.559Z,7.40
2018-08-28T01:11:34.772Z,6.20
2018-08-28T01:14:03.987Z,9.17
2018-08-28T01:16:33.161Z,6.80
2018-08-28T01:19:02.375Z,6.13
2018-08-28T01:21:31.538Z,5.43
2018-08-28T01:24:00.708Z,7.83
2018-08-28T01:26:29.812Z,3.97
2018-08-28T01:28:58.967Z,5.23
2018-08-28T01:31:28.225Z,5.90
2018-08-28T01:33:57.464Z,7.80
2018-08-28T01:36:26.593Z,4.63
2018-08-28T01:38:55.681Z,6.80
2018-08-28T01:41:24.812Z,4.20
2018-08-28T01:43:54.066Z,6.63
2018-08-28T01:46:23.281Z,5.40
2018-08-28T01:48:52.444Z,6.50
2018-08-28T01:51:21.635Z,4.17
2018-08-28T01:53:50.846Z,8.17
2018-08-28T01:56:19.935Z,5.43
2018-08-28T01:58:49.163Z,7.30
2018-08-28T02:01:18.334Z,6.93
2018-08-28T02:03:47.424Z,8.93
2018-08-28T02:06:20.317Z,4.13
2018-08-28T02:08:49.369Z,8.13
2018-08-28T02:11:18.589Z,9.23
2018-08-28T02:13:47.699Z,5.63
2018-08-28T02:16:16.806Z,7.47
2018-08-28T02:18:46.079Z,8.40
2018-08-28T02:21:20.871Z,6.03
2018-08-28T02:23:49.965Z,7.33
2018-08-28T02:26:19.087Z,8.70
2018-08-28T02:28:48.235Z,7.67
2018-08-28T02:31:17.316Z,6.07
2018-08-28T02:33:46.635Z,6.53
2018-08-28T02:36:15.777Z,4.80
2018-08-28T02:38:44.917Z,5.33
2018-08-28T02:41:14.113Z,8.13
2018-08-28T02:43:43.207Z,9.90
2018-08-28T02:46:12.383Z,8.03
2018-08-28T02:48:41.605Z,6.73
2018-08-28T02:51:10.693Z,7.47
2018-08-28T02:53:39.883Z,6.07
2018-08-28T02:56:08.981Z,4.87
2018-08-28T02:58:38.048Z,6.43
2018-08-28T03:01:07.507Z,7.37
2018-08-28T03:03:36.612Z,7.83
2018-08-28T03:06:05.765Z,5.77
2018-08-28T03:08:34.862Z,5.87
2018-08-28T03:11:04.031Z,8.27
2018-08-28T03:13:33.226Z,8.90
2018-08-28T03:16:02.430Z,8.07
2018-08-28T03:18:31.617Z,6.30
2018-08-28T03:21:00.713Z,9.70
2018-08-28T03:23:29.930Z,10.20
2018-08-28T03:25:59.110Z,6.63
2018-08-28T03:28:28.241Z,11.40
2018-08-28T03:30:57.441Z,6.57
2018-08-28T03:33:26.690Z,10.03
2018-08-28T03:35:55.932Z,7.23
2018-08-28T03:38:25.160Z,11.27
2018-08-28T03:40:54.337Z,7.03
2018-08-28T03:43:23.421Z,5.17
2018-08-28T03:45:52.569Z,9.63
2018-08-28T03:48:21.763Z,6.93
2018-08-28T03:50:50.950Z,9.07
2018-08-28T03:53:20.677Z,7.33
2018-08-28T03:55:49.855Z,7.83
2018-08-28T03:58:19.147Z,7.77
2018-08-28T04:00:48.417Z,10.33
2018-08-28T04:03:17.543Z,10.83
2018-08-28T04:05:46.767Z,10.13
2018-08-28T04:08:15.967Z,9.43
2018-08-28T04:10:45.049Z,5.10
2018-08-28T04:13:14.153Z,9.27
2018-08-28T04:15:43.349Z,12.83
2018-08-28T04:18:12.471Z,11.03
2018-08-28T04:20:41.845Z,7.30
2018-08-28T04:23:11.003Z,9.00
2018-08-28T04:25:40.153Z,12.13
2018-08-28T04:28:09.324Z,9.37
2018-08-28T04:30:38.641Z,11.97
2018-08-28T04:33:07.930Z,10.87
2018-08-28T04:35:37.066Z,11.60
2018-08-28T04:38:06.400Z,13.57
2018-08-28T04:40:35.666Z,10.13
2018-08-28T04:43:04.924Z,9.80
2018-08-28T04:45:34.088Z,10.97
2018-08-28T04:48:03.218Z,10.07
2018-08-28T04:50:32.476Z,11.03
2018-08-28T04:53:01.613Z,8.43
2018-08-28T04:55:30.790Z,9.43
2018-08-28T04:57:59.976Z,11.13
2018-08-28T05:00:29.050Z,12.23
2018-08-28T05:02:58.222Z,11.37
2018-08-28T05:05:27.368Z,13.63
2018-08-28T05:07:56.485Z,13.30
2018-08-28T05:10:25.635Z,14.90
2018-08-28T05:12:54.750Z,11.83
2018-08-28T05:15:23.914Z,15.10
2018-08-28T05:17:53.075Z,12.17
2018-08-28T05:20:22.248Z,16.13
2018-08-28T05:22:51.386Z,13.00
2018-08-28T05:25:20.644Z,8.97
2018-08-28T05:27:50.947Z,11.40
2018-08-28T05:30:20.121Z,9.33
2018-08-28T05:32:49.141Z,14.70
2018-08-28T05:35:18.227Z,13.53
2018-08-28T05:37:47.320Z,11.83
2018-08-28T05:40:16.545Z,10.67
2018-08-28T05:42:45.838Z,14.83
2018-08-28T05:45:14.958Z,11.77
2018-08-28T05:47:44.105Z,9.77
2018-08-28T05:50:13.201Z,13.63
2018-08-28T05:52:42.346Z,11.80
2018-08-28T05:55:11.478Z,13.60
2018-08-28T05:57:40.632Z,12.90
2018-08-28T06:00:10.068Z,12.00
2018-08-28T06:02:39.197Z,11.07
2018-08-28T06:05:08.574Z,9.33
2018-08-28T06:07:37.775Z,7.93
2018-08-28T06:10:06.940Z,10.90
2018-08-28T06:12:36.144Z,11.70
2018-08-28T06:15:05.704Z,7.67
2018-08-28T06:17:34.886Z,6.87
2018-08-28T06:20:04.247Z,8.93
2018-08-28T06:22:33.436Z,8.20
2018-08-28T06:25:02.787Z,10.07
2018-08-28T06:27:31.932Z,11.03
2018-08-28T06:30:01.141Z,9.93
2018-08-28T06:32:30.512Z,11.53
2018-08-28T06:34:59.718Z,6.27
2018-08-28T06:37:30.044Z,11.60
2018-08-28T06:39:59.025Z,13.47
2018-08-28T06:42:28.106Z,14.57
2018-08-28T06:44:57.145Z,8.90
2018-08-28T06:47:26.253Z,12.23
2018-08-28T06:50:13.499Z,12.30
2018-08-28T06:52:49.125Z,11.93
2018-08-28T06:55:18.435Z,7.00
2018-08-28T06:57:48.129Z,7.73
2018-08-28T07:00:17.339Z,10.57
2018-08-28T07:02:46.888Z,10.87
2018-08-28T07:05:16.277Z,13.43
2018-08-28T07:07:45.411Z,10.63
2018-08-28T07:10:14.795Z,10.67
2018-08-28T07:12:44.015Z,8.97
2018-08-28T07:15:13.259Z,13.87
2018-08-28T07:17:42.915Z,17.20
2018-08-28T07:20:12.063Z,9.33
2018-08-28T07:22:41.391Z,10.23
2018-08-28T07:25:10.694Z,9.20
2018-08-28T07:27:40.160Z,8.90
2018-08-28T07:30:09.502Z,14.57
2018-08-28T07:32:39.097Z,12.57
2018-08-28T07:35:08.413Z,12.40
2018-08-28T07:37:37.659Z,7.83
2018-08-28T07:40:07.084Z,13.77
2018-08-28T07:42:36.385Z,12.43
2018-08-28T07:45:05.709Z,13.20
2018-08-28T07:47:34.927Z,12.87
2018-08-28T07:50:04.111Z,14.70
2018-08-28T07:52:33.273Z,12.20
2018-08-28T07:55:02.642Z,10.10
2018-08-28T07:57:32.196Z,11.27
2018-08-28T08:00:01.563Z,10.07
2018-08-28T08:02:36.727Z,11.30
2018-08-28T08:05:06.272Z,11.27
2018-08-28T08:07:35.485Z,11.20
2018-08-28T08:10:04.989Z,10.40
2018-08-28T08:12:34.213Z,9.03
2018-08-28T08:15:03.507Z,9.77
2018-08-28T08:17:32.709Z,8.63
2018-08-28T08:20:02.008Z,10.67
2018-08-28T08:22:31.236Z,8.17
2018-08-28T08:25:00.463Z,7.30
2018-08-28T08:27:29.590Z,8.63
2018-08-28T08:29:59.083Z,8.17
2018-08-28T08:32:28.269Z,9.17
2018-08-28T08:34:57.593Z,7.97
2018-08-28T08:37:29.720Z,14.50
2018-08-28T08:39:59.033Z,10.53
2018-08-28T08:42:28.289Z,9.80
2018-08-28T08:44:57.461Z,10.63
2018-08-28T08:47:26.785Z,9.60
2018-08-28T08:49:57.123Z,10.17
2018-08-28T08:52:26.403Z,8.13
2018-08-28T08:54:55.654Z,8.73
2018-08-28T08:57:25.000Z,10.43
2018-08-28T08:59:54.373Z,10.13
2018-08-28T09:02:23.745Z,12.10
2018-08-28T09:04:53.246Z,10.27
2018-08-28T09:07:22.309Z,8.10
2018-08-28T09:09:51.696Z,5.33
2018-08-28T09:12:21.011Z,12.33
2018-08-28T09:14:50.193Z,6.83
2018-08-28T09:17:19.401Z,12.53
2018-08-28T09:19:48.638Z,7.80
2018-08-28T09:22:18.072Z,7.37
2018-08-28T09:24:47.273Z,6.93
2018-08-28T09:27:16.589Z,6.00
2018-08-28T09:29:45.802Z,9.57
2018-08-28T09:32:15.048Z,7.53
2018-08-28T09:34:44.189Z,8.57
2018-08-28T09:37:13.537Z,7.47
2018-08-28T09:39:42.757Z,7.27
2018-08-28T09:42:12.015Z,7.80
2018-08-28T09:44:41.206Z,7.23
2018-08-28T09:47:11.441Z,7.70
2018-08-28T09:49:40.609Z,6.80
2018-08-28T09:52:09.918Z,7.00
2018-08-28T09:54:39.140Z,9.63
2018-08-28T09:57:08.399Z,7.20
2018-08-28T09:59:37.735Z,8.97
2018-08-28T10:02:07.055Z,6.80
2018-08-28T10:04:36.387Z,8.97
2018-08-28T10:07:05.586Z,6.43
2018-08-28T10:09:34.839Z,7.50
2018-08-28T10:12:04.227Z,11.27
2018-08-28T10:14:33.360Z,8.10
2018-08-28T10:17:02.951Z,11.20
2018-08-28T10:19:37.526Z,7.37
2018-08-28T10:22:12.252Z,11.47
2018-08-28T10:24:41.498Z,8.67
2018-08-28T10:27:10.777Z,9.57
2018-08-28T10:29:45.456Z,9.83
2018-08-28T10:32:14.708Z,8.27
2018-08-28T10:34:44.006Z,8.77
2018-08-28T10:37:13.152Z,9.63
2018-08-28T10:39:42.308Z,7.47
2018-08-28T10:42:11.560Z,8.97
2018-08-28T10:44:40.826Z,9.20
2018-08-28T10:47:10.068Z,11.73
2018-08-28T10:49:40.539Z,11.33
2018-08-28T10:52:09.792Z,8.57
2018-08-28T10:54:38.972Z,11.07
2018-08-28T10:57:08.248Z,10.97
2018-08-28T10:59:37.351Z,9.00
2018-08-28T11:02:06.695Z,8.27
2018-08-28T11:04:36.243Z,9.03
2018-08-28T11:07:05.526Z,12.03
2018-08-28T11:09:34.727Z,10.00
2018-08-28T11:12:03.989Z,9.57
2018-08-28T11:14:33.166Z,10.03
2018-08-28T11:17:02.271Z,8.20
2018-08-28T11:19:31.936Z,11.53
2018-08-28T11:22:01.188Z,10.97
2018-08-28T11:24:31.357Z,9.63
2018-08-28T11:27:00.487Z,8.43
2018-08-28T11:29:29.677Z,11.33
2018-08-28T11:31:58.897Z,9.27
2018-08-28T11:34:28.007Z,10.27
2018-08-28T11:36:57.372Z,11.23
2018-08-28T11:39:32.056Z,11.70
2018-08-28T11:42:01.224Z,10.83
2018-08-28T11:44:30.316Z,10.17
2018-08-28T11:46:59.534Z,9.93
2018-08-28T11:49:28.689Z,9.57
2018-08-28T11:51:57.892Z,15.77
2018-08-28T11:54:27.634Z,10.40
2018-08-28T11:56:57.312Z,17.77
2018-08-28T11:59:26.456Z,11.30
2018-08-28T12:01:55.692Z,12.50
2018-08-28T12:04:24.810Z,14.30
2018-08-28T12:06:54.015Z,14.03
2018-08-28T12:09:23.104Z,16.97
2018-08-28T12:11:52.312Z,13.47
2018-08-28T12:14:21.481Z,11.50
2018-08-28T12:16:50.970Z,15.33
2018-08-28T12:19:20.177Z,16.73
2018-08-28T12:21:49.432Z,14.00
2018-08-28T12:24:18.771Z,9.47
2018-08-28T12:26:47.959Z,13.83
2018-08-28T12:29:17.032Z,11.90
2018-08-28T12:31:46.255Z,12.00
2018-08-28T12:34:15.508Z,13.10
2018-08-28T12:36:44.791Z,14.43
2018-08-28T12:39:14.066Z,10.80
2018-08-28T12:41:43.392Z,9.90
2018-08-28T12:44:13.598Z,10.77
2018-08-28T12:46:42.768Z,11.73
2018-08-28T12:49:12.052Z,9.93
2018-08-28T12:51:41.345Z,11.80
2018-08-28T12:54:10.521Z,11.63
2018-08-28T12:56:39.712Z,10.50
2018-08-28T12:59:08.972Z,14.53
2018-08-28T13:01:38.333Z,10.07
2018-08-28T13:04:07.561Z,11.77
2018-08-28T13:06:36.798Z,9.90
2018-08-28T13:09:07.090Z,7.80
2018-08-28T13:11:36.270Z,9.37
2018-08-28T13:14:05.481Z,9.40
2018-08-28T13:16:34.703Z,8.17
2018-08-28T13:19:04.111Z,8.63
2018-08-28T13:21:33.506Z,8.40
2018-08-28T13:24:02.685Z,8.53
2018-08-28T13:26:32.114Z,9.90
2018-08-28T13:29:01.518Z,8.33
2018-08-28T13:31:30.628Z,9.97
2018-08-28T13:33:59.804Z,6.93
2018-08-28T13:36:29.174Z,9.53
2018-08-28T13:38:58.412Z,7.40
2018-08-28T13:41:27.849Z,7.97
2018-08-28T13:43:57.206Z,13.57
2018-08-28T13:46:26.409Z,9.47
2018-08-28T13:48:55.514Z,9.17
2018-08-28T13:51:25.130Z,9.37
2018-08-28T13:53:54.465Z,8.27
2018-08-28T13:56:23.694Z,9.70
2018-08-28T13:58:52.804Z,10.23
2018-08-28T14:01:22.361Z,7.07
2018-08-28T14:03:51.948Z,11.40
2018-08-28T14:06:21.428Z,9.00
2018-08-28T14:08:50.680Z,9.60
2018-08-28T14:11:20.028Z,10.73
2018-08-28T14:13:49.386Z,10.40
2018-08-28T14:16:19.118Z,7.87
2018-08-28T14:18:49.319Z,8.43
2018-08-28T14:21:18.691Z,8.63
2018-08-28T14:23:48.157Z,9.47
2018-08-28T14:26:17.642Z,10.13
2018-08-28T14:28:47.086Z,9.47
2018-08-28T14:31:16.091Z,8.00
2018-08-28T14:33:45.775Z,9.50
2018-08-28T14:36:14.898Z,8.40
2018-08-28T14:38:44.031Z,9.20
2018-08-28T14:41:14.230Z,10.13
2018-08-28T14:43:43.649Z,9.60
2018-08-28T14:46:13.089Z,11.40
2018-08-28T14:48:42.168Z,11.43
2018-08-28T14:51:11.263Z,9.13
2018-08-28T14:53:41.317Z,9.40
2018-08-28T14:56:10.816Z,8.43
2018-08-28T14:58:40.514Z,7.87
2018-08-28T15:01:10.274Z,11.07
2018-08-28T15:03:39.637Z,11.33
2018-08-28T15:06:08.735Z,6.67
2018-08-28T15:08:38.023Z,9.40
2018-08-28T15:11:07.223Z,7.63
2018-08-28T15:13:36.687Z,10.23
2018-08-28T15:16:06.537Z,8.43
2018-08-28T15:18:35.688Z,9.50
2018-08-28T15:21:05.140Z,7.83
2018-08-28T15:23:38.347Z,12.23
2018-08-28T15:26:07.754Z,10.00
2018-08-28T15:28:42.540Z,9.60
2018-08-28T15:31:17.322Z,13.20
2018-08-28T15:33:46.990Z,9.70
2018-08-28T15:36:16.892Z,8.43
2018-08-28T15:38:46.140Z,9.33
2018-08-28T15:41:15.462Z,9.87
2018-08-28T15:43:44.711Z,8.47
2018-08-28T15:46:14.173Z,9.13
2018-08-28T15:48:43.340Z,11.20
2018-08-28T15:51:12.769Z,8.43
2018-08-28T15:53:42.830Z,12.63
2018-08-28T15:56:12.315Z,10.27
2018-08-28T15:58:41.858Z,10.43
2018-08-28T16:01:11.214Z,10.93
2018-08-28T16:03:40.850Z,8.97
2018-08-28T16:06:10.444Z,10.53
2018-08-28T16:08:39.655Z,9.57
2018-08-28T16:11:09.019Z,11.97
2018-08-28T16:13:38.332Z,16.20
2018-08-28T16:16:07.936Z,9.60
2018-08-28T16:18:37.156Z,10.67
2018-08-28T16:21:07.694Z,12.20
2018-08-28T16:23:39.513Z,10.63
2018-08-28T16:26:08.999Z,8.90
2018-08-28T16:28:38.553Z,10.93
2018-08-28T16:31:07.689Z,11.37
2018-08-28T16:33:37.433Z,12.47
2018-08-28T16:36:06.738Z,10.10
2018-08-28T16:38:36.689Z,10.63
2018-08-28T16:41:05.835Z,11.53
2018-08-28T16:43:35.060Z,10.13
2018-08-28T16:46:04.205Z,10.63
2018-08-28T16:48:33.455Z,10.63
2018-08-28T16:51:02.651Z,10.03
2018-08-28T16:53:31.804Z,13.70
2018-08-28T16:56:01.209Z,14.07
2018-08-28T16:58:30.668Z,20.40
2018-08-28T17:00:59.974Z,12.63
2018-08-28T17:03:29.171Z,21.37
2018-08-28T17:05:58.633Z,30.23
2018-08-28T17:08:28.206Z,29.00
2018-08-28T17:10:57.336Z,11.57
2018-08-28T17:13:26.535Z,16.73
2018-08-28T17:16:01.459Z,11.20
2018-08-28T17:18:32.123Z,10.73
2018-08-28T17:21:01.623Z,9.20
2018-08-28T17:23:31.365Z,8.80
2018-08-28T17:26:00.805Z,10.73
2018-08-28T17:28:29.923Z,9.40
2018-08-28T17:30:59.358Z,8.87
2018-08-28T17:33:28.611Z,10.33
2018-08-28T17:35:57.790Z,8.40
2018-08-28T17:38:26.897Z,10.50
2018-08-28T17:40:57.285Z,13.17
2018-08-28T17:43:27.773Z,10.03
2018-08-28T17:45:57.279Z,11.73
2018-08-28T17:48:26.642Z,10.70
2018-08-28T17:50:56.799Z,11.83
2018-08-28T17:53:26.077Z,9.33
2018-08-28T17:55:55.209Z,12.50
2018-08-28T17:58:25.029Z,9.13
2018-08-28T18:00:54.309Z,9.77
2018-08-28T18:03:23.741Z,10.13
2018-08-28T18:05:53.134Z,9.93
2018-08-28T18:08:28.340Z,10.20
2018-08-28T18:10:57.443Z,13.87
2018-08-28T18:13:26.629Z,10.77
2018-08-28T18:15:56.031Z,8.90
2018-08-28T18:18:25.457Z,10.47
2018-08-28T18:20:54.817Z,10.77
2018-08-28T18:23:23.922Z,11.20
2018-08-28T18:25:53.384Z,9.47
2018-08-28T18:28:22.965Z,9.57
2018-08-28T18:30:52.176Z,10.40
2018-08-28T18:33:21.351Z,9.97
2018-08-28T18:35:50.857Z,11.27
2018-08-28T18:38:20.070Z,12.00
2018-08-28T18:40:49.748Z,13.27
2018-08-28T18:43:19.068Z,10.87
2018-08-28T18:45:48.605Z,10.57
2018-08-28T18:48:17.893Z,13.13
2018-08-28T18:50:47.340Z,11.63
2018-08-28T18:53:16.700Z,9.00
2018-08-28T18:55:46.193Z,16.20
2018-08-28T18:58:15.461Z,13.33
2018-08-28T19:00:44.633Z,9.80
2018-08-28T19:03:14.047Z,8.97
2018-08-28T19:05:43.371Z,11.80
2018-08-28T19:08:12.755Z,18.63
2018-08-28T19:10:41.937Z,12.27
2018-08-28T19:13:11.116Z,12.80
2018-08-28T19:15:40.472Z,12.83
2018-08-28T19:18:09.804Z,14.67
2018-08-28T19:20:39.122Z,13.67
2018-08-28T19:23:08.862Z,15.40
2018-08-28T19:25:38.212Z,14.30
2018-08-28T19:28:07.405Z,14.73
2018-08-28T19:30:36.635Z,12.57
2018-08-28T19:33:06.045Z,12.80
2018-08-28T19:35:35.323Z,13.50
2018-08-28T19:38:04.749Z,13.57
2018-08-28T19:40:35.158Z,16.43
2018-08-28T19:43:04.329Z,12.50
2018-08-28T19:45:33.481Z,14.23
2018-08-28T19:48:03.296Z,16.97
2018-08-28T19:50:32.584Z,12.57
2018-08-28T19:53:01.713Z,13.50
2018-08-28T19:55:31.104Z,14.87
2018-08-28T19:58:00.544Z,16.87
2018-08-28T20:00:29.765Z,15.67
2018-08-28T20:02:59.307Z,15.83
2018-08-28T20:05:28.540Z,15.63
2018-08-28T20:07:57.638Z,15.00
2018-08-28T20:10:26.810Z,14.53
2018-08-28T20:12:55.973Z,16.90
2018-08-28T20:15:25.139Z,17.47
2018-08-28T20:17:54.318Z,15.93
2018-08-28T20:20:23.569Z,13.77
2018-08-28T20:22:52.822Z,17.30
2018-08-28T20:25:21.888Z,17.90
2018-08-28T20:27:51.078Z,18.43
2018-08-28T20:30:20.318Z,17.77
2018-08-28T20:32:49.432Z,15.60
2018-08-28T20:35:18.537Z,17.40
2018-08-28T20:37:47.661Z,18.63
2018-08-28T20:40:16.830Z,18.03
2018-08-28T20:42:51.556Z,19.03
2018-08-28T20:45:20.800Z,18.87
2018-08-28T20:47:55.479Z,17.67
2018-08-28T20:50:24.727Z,17.27
2018-08-28T20:52:53.979Z,19.17
2018-08-28T20:55:23.301Z,18.73
2018-08-28T20:57:52.504Z,18.87
2018-08-28T21:00:21.551Z,17.77
2018-08-28T21:02:50.811Z,20.13
2018-08-28T21:05:25.298Z,17.00
2018-08-28T21:07:54.421Z,20.53
2018-08-28T21:10:23.628Z,20.53
2018-08-28T21:12:53.050Z,19.00
2018-08-28T21:15:22.295Z,18.33
2018-08-28T21:17:51.699Z,19.30
2018-08-28T21:20:20.959Z,19.23
2018-08-28T21:22:50.315Z,18.33
2018-08-28T21:25:19.363Z,22.00
2018-08-28T21:27:48.569Z,20.73
2018-08-28T21:30:17.729Z,21.60
2018-08-28T21:32:46.859Z,19.70
2018-08-28T21:35:15.975Z,16.37
2018-08-28T21:37:45.268Z,22.23
2018-08-28T21:40:14.501Z,19.57
2018-08-28T21:42:43.625Z,23.20
2018-08-28T21:45:12.829Z,21.03
2018-08-28T21:47:41.969Z,20.73
2018-08-28T21:50:11.217Z,16.63
2018-08-28T21:52:40.371Z,19.23
2018-08-28T21:55:09.471Z,22.93
2018-08-28T21:57:44.243Z,18.20
2018-08-28T22:00:18.868Z,20.80
2018-08-28T22:02:48.092Z,21.70
2018-08-28T22:05:17.217Z,23.47
2018-08-28T22:07:46.381Z,22.17
2018-08-28T22:10:15.575Z,19.57
2018-08-28T22:12:44.622Z,21.73
2018-08-28T22:15:14.496Z,23.17
2018-08-28T22:17:43.601Z,18.27
2018-08-28T22:20:12.772Z,20.97
2018-08-28T22:22:41.870Z,19.73
2018-08-28T22:25:10.965Z,22.90
2018-08-28T22:27:40.089Z,21.07
2018-08-28T22:30:09.894Z,22.10
2018-08-28T22:32:39.751Z,20.43
2018-08-28T22:35:09.112Z,19.80
2018-08-28T22:37:38.291Z,19.67
2018-08-28T22:40:09.919Z,20.83
2018-08-28T22:42:39.175Z,16.87
2018-08-28T22:45:08.396Z,21.00
2018-08-28T22:47:37.617Z,19.83
2018-08-28T22:50:07.045Z,20.23
2018-08-28T22:52:36.200Z,17.73
2018-08-28T22:55:05.359Z,20.37
2018-08-28T23:00:34.428Z,17.80
2018-08-28T23:03:03.563Z,18.83
2018-08-28T23:05:32.751Z,24.53
2018-08-28T23:08:02.022Z,18.87
2018-08-28T23:10:31.205Z,19.50
2018-08-28T23:13:00.509Z,19.53
2018-08-28T23:15:29.728Z,19.57
2018-08-28T23:17:58.881Z,22.83
2018-08-28T23:20:28.080Z,19.07
2018-08-28T23:22:57.213Z,20.33
2018-08-28T23:25:26.399Z,17.63
2018-08-28T23:27:55.531Z,21.27
2018-08-28T23:30:24.710Z,19.27
2018-08-28T23:32:53.771Z,21.43
2018-08-28T23:35:22.949Z,21.27
2018-08-28T23:37:52.053Z,20.30
2018-08-28T23:40:21.251Z,18.80
2018-08-28T23:42:50.441Z,22.60
2018-08-28T23:45:19.521Z,18.23
2018-08-28T23:47:48.601Z,21.93
2018-08-28T23:50:17.833Z,24.17
2018-08-28T23:52:46.773Z,23.23
2018-08-28T23:55:15.811Z,21.33
2018-08-28T23:57:44.754Z,20.67
